地図

経路データ

SID SEASON NUMBER BASIN SUBBASIN NAME ISO_TIME NATURE LAT LON WMO_WIND WMO_PRES WMO_AGENCY TRACK_TYPE DIST2LAND LANDFALL IFLAG USA_AGENCY USA_ATCF_ID USA_LAT USA_LON USA_RECORD USA_STATUS USA_WIND USA_PRES USA_SSHS USA_R34_NE USA_R34_SE USA_R34_SW USA_R34_NW USA_R50_NE USA_R50_SE USA_R50_SW USA_R50_NW USA_R64_NE USA_R64_SE USA_R64_SW USA_R64_NW USA_POCI USA_ROCI USA_RMW USA_EYE TOKYO_LAT TOKYO_LON TOKYO_GRADE TOKYO_WIND TOKYO_PRES TOKYO_R50_DIR TOKYO_R50_LONG TOKYO_R50_SHORT TOKYO_R30_DIR TOKYO_R30_LONG TOKYO_R30_SHORT TOKYO_LAND CMA_LAT CMA_LON CMA_CAT CMA_WIND CMA_PRES HKO_LAT HKO_LON HKO_CAT HKO_WIND HKO_PRES NEWDELHI_LAT NEWDELHI_LON NEWDELHI_GRADE NEWDELHI_WIND NEWDELHI_PRES NEWDELHI_CI NEWDELHI_DP NEWDELHI_POCI REUNION_LAT REUNION_LON REUNION_TYPE REUNION_WIND REUNION_PRES REUNION_TNUM REUNION_CI REUNION_RMW REUNION_R34_NE REUNION_R34_SE REUNION_R34_SW REUNION_R34_NW REUNION_R50_NE REUNION_R50_SE REUNION_R50_SW REUNION_R50_NW REUNION_R64_NE REUNION_R64_SE REUNION_R64_SW REUNION_R64_NW BOM_LAT BOM_LON BOM_TYPE BOM_WIND BOM_PRES BOM_TNUM BOM_CI BOM_RMW BOM_R34_NE BOM_R34_SE BOM_R34_SW BOM_R34_NW BOM_R50_NE BOM_R50_SE BOM_R50_SW BOM_R50_NW BOM_R64_NE BOM_R64_SE BOM_R64_SW BOM_R64_NW BOM_ROCI BOM_POCI BOM_EYE BOM_POS_METHOD BOM_PRES_METHOD NADI_LAT NADI_LON NADI_CAT NADI_WIND NADI_PRES WELLINGTON_LAT WELLINGTON_LON WELLINGTON_WIND WELLINGTON_PRES DS824_LAT DS824_LON DS824_STAGE DS824_WIND DS824_PRES TD9636_LAT TD9636_LON TD9636_STAGE TD9636_WIND TD9636_PRES TD9635_LAT TD9635_LON TD9635_WIND TD9635_PRES TD9635_ROCI NEUMANN_LAT NEUMANN_LON NEUMANN_CLASS NEUMANN_WIND NEUMANN_PRES MLC_LAT MLC_LON MLC_CLASS MLC_WIND MLC_PRES USA_GUST BOM_GUST BOM_GUST_PER REUNION_GUST REUNION_GUST_PER USA_SEAHGT USA_SEARAD_NE USA_SEARAD_SE USA_SEARAD_SW USA_SEARAD_NW STORM_SPEED STORM_DIR
1927318N13089 1927 66 NI BB NOT_NAMED 1927-11-14 00:00:00 TS 12.9000 88.9000 main 668 652 _________O____ -1 12.9000 88.9000 TC 30 3 46
1927318N13089 1927 66 NI BB NOT_NAMED 1927-11-14 03:00:00 TS 12.9950 88.9983 main 652 637 _________PO___ -1 13.0425 89.0475 TC 30 12.9000 88.9000 1 3 44
1927318N13089 1927 66 NI BB NOT_NAMED 1927-11-14 06:00:00 TS 13.1469 89.1467 main 637 607 _________OP___ -1 13.2000 89.2000 TC 30 13.0673 89.0669 1 4 42
1927318N13089 1927 66 NI BB NOT_NAMED 1927-11-14 09:00:00 TS 13.3218 89.3016 main 607 587 _________PP___ -1 13.3850 89.3575 TC 30 13.2376 89.2271 1 5 38
1927318N13089 1927 66 NI BB NOT_NAMED 1927-11-14 12:00:00 TS 13.5071 89.4369 main 587 567 _________OP___ -1 13.6000 89.5000 TC 30 13.4141 89.3738 1 5 32
1927318N13089 1927 66 NI BB NOT_NAMED 1927-11-14 15:00:00 TS 13.7175 89.5538 main 557 547 _________PO___ -1 13.8350 89.6075 TC 31 13.6000 89.5000 1 5 25
1927318N13089 1927 66 NI BB NOT_NAMED 1927-11-14 18:00:00 TS 13.9508 89.6513 main 532 523 _________OP___ -1 14.1000 89.7000 TC 32 13.8015 89.6026 1 5 21
1927318N13089 1927 66 NI BB NOT_NAMED 1927-11-14 21:00:00 TS 14.1962 89.7429 main 523 501 _________PP___ -1 14.3550 89.7926 TC 33 14.0374 89.6932 1 6 18
1927318N13089 1927 66 NI BB NOT_NAMED 1927-11-15 00:00:00 TS 14.5148 89.8436 main 501 466 _________OP___ -1 14.7000 89.9000 TC 34 14.3296 89.7871 1 8 16
1927318N13089 1927 66 NI BB NOT_NAMED 1927-11-15 03:00:00 TS 14.9562 89.9675 main 463 442 _________PO___ -1 15.2125 90.0350 TC 36 14.7000 89.9000 2 10 15
1927318N13089 1927 66 NI BB NOT_NAMED 1927-11-15 06:00:00 TS 15.4936 90.1226 main 442 417 _________OP___ -1 15.8000 90.2000 TC 39 15.1872 90.0452 2 12 16
1927318N13089 1927 66 NI BB NOT_NAMED 1927-11-15 09:00:00 TS 16.0525 90.3024 main 417 399 _________PP___ -1 16.3575 90.3925 TC 42 15.7475 90.2124 2 12 18
1927318N13089 1927 66 NI BB NOT_NAMED 1927-11-15 12:00:00 TS 16.6170 90.4992 main 400 381 _________OP___ -1 16.9000 90.6000 TC 45 16.3341 90.3984 2 12 19
1927318N13089 1927 66 NI BB NOT_NAMED 1927-11-15 15:00:00 TS 17.1612 90.6963 main 375 334 _________PO___ -1 17.4224 90.7926 TC 41 16.9000 90.6000 3 11 21
1927318N13089 1927 66 NI BB NOT_NAMED 1927-11-15 18:00:00 TS 17.6658 90.9132 main 329 292 _________OP___ -1 17.9000 91.0000 TC 37 17.4316 90.8265 3 11 24
1927318N13089 1927 66 NI BB NOT_NAMED 1927-11-15 21:00:00 TS 18.1438 91.1609 main 282 238 _________PP___ -1 18.3600 91.2574 TC 33 17.9276 91.0644 3 10 28
1927318N13089 1927 66 NI BB NOT_NAMED 1927-11-16 00:00:00 TS 18.5299 91.3976 main 238 199 _________OP___ -1 18.7000 91.5000 TC 30 18.3598 91.2952 3 7 33
1927318N13089 1927 66 NI BB NOT_NAMED 1927-11-16 03:00:00 TS 18.7687 91.5864 main 199 183 _________PO___ -1 18.8375 91.6727 TC 30 18.7000 91.5000 1 5 40
1927318N13089 1927 66 NI BB NOT_NAMED 1927-11-16 06:00:00 TS 18.9112 91.7292 main 183 168 _________OP___ -1 18.9000 91.8000 TC 30 18.9223 91.6585 1 4 41
1927318N13089 1927 66 NI BB NOT_NAMED 1927-11-16 09:00:00 TS 19.0524 91.8479 main 160 145 _________PP___ -1 19.0500 91.9075 TC 30 19.0548 91.7883 1 3 39
1927318N13089 1927 66 NI BB NOT_NAMED 1927-11-16 12:00:00 TS 19.1674 91.9495 main 145 137 _________OP___ -1 19.2000 92.0000 TC 30 19.1349 91.8989 1 3 43
1927318N13089 1927 66 NI BB NOT_NAMED 1927-11-16 15:00:00 TS 19.2537 92.0500 main 122 122 _________PO___ -1 19.3075 92.1000 TC 30 19.2000 92.0000 1 2 48
1927318N13089 1927 66 NI BB NOT_NAMED 1927-11-16 18:00:00 TS 19.3317 92.1427 main 122 107 _________OP___ -1 19.4000 92.2000 TC 30 19.2804 92.0997 1 2 46
1927318N13089 1927 66 NI BB NOT_NAMED 1927-11-16 21:00:00 TS 19.4256 92.2398 main 107 91 _________PP___ -1 19.4975 92.3000 TC 30 19.3776 92.1996 1 3 44
1927318N13089 1927 66 NI BB NOT_NAMED 1927-11-17 00:00:00 TS 19.5240 92.3332 main 91 76 _________OP___ -1 19.6000 92.4000 TC 30 19.4860 92.2997 1 2 41
1927318N13089 1927 66 NI BB NOT_NAMED 1927-11-17 03:00:00 NR 19.6000 92.4000 main 76 __________O___ -1 TC 19.6000 92.4000 1 2 43

IBTrACS Databaseについて

本データベースは、米国NOAAが公開する1842年以降の世界の熱帯低気圧のベストトラックデータアーカイブInternational Best Track Archive for Climate Stewardship (IBTrACS)を、ウェブで閲覧しやすい形式に変換したものです。

最終更新日:2021-12-08